sensor_id;sensor_type;location;lat;lon;timestamp;P1;durP1;ratioP1;P2;durP2;ratioP2
65597;SDS011;52267;51.984;20.956;2022-11-06T00:00:04;20.90;;;10.90;;
65597;SDS011;52267;51.984;20.956;2022-11-06T00:02:56;25.00;;;12.10;;
65597;SDS011;52267;51.984;20.956;2022-11-06T00:05:25;20.50;;;11.60;;
65597;SDS011;52267;51.984;20.956;2022-11-06T00:08:11;32.50;;;12.10;;
65597;SDS011;52267;51.984;20.956;2022-11-06T00:10:39;25.70;;;12.70;;
65597;SDS011;52267;51.984;20.956;2022-11-06T00:13:06;20.70;;;11.40;;
65597;SDS011;52267;51.984;20.956;2022-11-06T00:15:33;27.40;;;13.90;;
65597;SDS011;52267;51.984;20.956;2022-11-06T00:18:00;23.00;;;12.30;;
65597;SDS011;52267;51.984;20.956;2022-11-06T00:20:27;25.20;;;13.60;;
65597;SDS011;52267;51.984;20.956;2022-11-06T00:22:54;22.80;;;12.60;;
65597;SDS011;52267;51.984;20.956;2022-11-06T00:25:21;26.90;;;12.00;;
65597;SDS011;52267;51.984;20.956;2022-11-06T00:27:48;20.00;;;12.30;;
65597;SDS011;52267;51.984;20.956;2022-11-06T00:30:15;24.90;;;12.70;;
65597;SDS011;52267;51.984;20.956;2022-11-06T00:32:42;25.50;;;13.00;;
65597;SDS011;52267;51.984;20.956;2022-11-06T00:35:09;21.60;;;12.20;;
65597;SDS011;52267;51.984;20.956;2022-11-06T00:37:36;23.40;;;11.50;;
65597;SDS011;52267;51.984;20.956;2022-11-06T00:40:03;25.00;;;12.40;;
65597;SDS011;52267;51.984;20.956;2022-11-06T00:42:31;24.30;;;12.40;;
65597;SDS011;52267;51.984;20.956;2022-11-06T00:44:58;21.50;;;12.50;;
65597;SDS011;52267;51.984;20.956;2022-11-06T00:47:25;20.30;;;9.70;;
65597;SDS011;52267;51.984;20.956;2022-11-06T00:49:52;22.80;;;10.70;;
65597;SDS011;52267;51.984;20.956;2022-11-06T00:52:19;22.50;;;11.10;;
65597;SDS011;52267;51.984;20.956;2022-11-06T00:54:46;19.80;;;10.80;;
65597;SDS011;52267;51.984;20.956;2022-11-06T00:57:13;24.30;;;10.80;;
65597;SDS011;52267;51.984;20.956;2022-11-06T00:59:40;23.10;;;11.90;;
65597;SDS011;52267;51.984;20.956;2022-11-06T01:02:07;20.30;;;10.30;;
65597;SDS011;52267;51.984;20.956;2022-11-06T01:04:34;19.60;;;11.00;;
65597;SDS011;52267;51.984;20.956;2022-11-06T01:07:00;23.00;;;10.60;;
65597;SDS011;52267;51.984;20.956;2022-11-06T01:09:27;22.50;;;11.00;;
65597;SDS011;52267;51.984;20.956;2022-11-06T01:11:56;19.70;;;10.50;;
65597;SDS011;52267;51.984;20.956;2022-11-06T01:14:24;19.00;;;11.20;;
65597;SDS011;52267;51.984;20.956;2022-11-06T01:16:52;22.50;;;11.90;;
65597;SDS011;52267;51.984;20.956;2022-11-06T01:19:20;16.70;;;9.30;;
65597;SDS011;52267;51.984;20.956;2022-11-06T01:21:50;22.90;;;11.20;;
65597;SDS011;52267;51.984;20.956;2022-11-06T01:24:23;21.90;;;12.30;;
65597;SDS011;52267;51.984;20.956;2022-11-06T01:26:52;24.30;;;12.70;;
65597;SDS011;52267;51.984;20.956;2022-11-06T01:29:19;14.30;;;8.20;;
65597;SDS011;52267;51.984;20.956;2022-11-06T01:31:47;26.70;;;10.90;;
65597;SDS011;52267;51.984;20.956;2022-11-06T01:34:17;24.20;;;11.80;;
65597;SDS011;52267;51.984;20.956;2022-11-06T01:36:44;17.70;;;9.50;;
65597;SDS011;52267;51.984;20.956;2022-11-06T01:39:13;19.60;;;9.70;;
65597;SDS011;52267;51.984;20.956;2022-11-06T01:41:45;23.20;;;9.60;;
65597;SDS011;52267;51.984;20.956;2022-11-06T01:47:03;19.80;;;9.70;;
65597;SDS011;52267;51.984;20.956;2022-11-06T01:52:09;21.10;;;10.70;;
65597;SDS011;52267;51.984;20.956;2022-11-06T01:54:40;19.10;;;8.90;;
65597;SDS011;52267;51.984;20.956;2022-11-06T01:57:08;26.30;;;11.80;;
65597;SDS011;52267;51.984;20.956;2022-11-06T01:59:39;20.50;;;11.60;;
65597;SDS011;52267;51.984;20.956;2022-11-06T02:02:08;20.60;;;11.50;;
65597;SDS011;52267;51.984;20.956;2022-11-06T02:04:41;18.40;;;10.10;;
65597;SDS011;52267;51.984;20.956;2022-11-06T02:07:10;15.80;;;8.90;;
65597;SDS011;52267;51.984;20.956;2022-11-06T02:09:38;28.20;;;12.30;;
65597;SDS011;52267;51.984;20.956;2022-11-06T02:12:22;22.60;;;11.40;;
65597;SDS011;52267;51.984;20.956;2022-11-06T02:29:40;23.00;;;12.20;;
65597;SDS011;52267;51.984;20.956;2022-11-06T02:33:01;20.50;;;10.70;;
65597;SDS011;52267;51.984;20.956;2022-11-06T02:36:00;26.00;;;11.40;;
65597;SDS011;52267;51.984;20.956;2022-11-06T02:38:39;20.50;;;10.60;;
65597;SDS011;52267;51.984;20.956;2022-11-06T02:41:32;21.40;;;10.90;;
65597;SDS011;52267;51.984;20.956;2022-11-06T02:44:03;20.50;;;10.80;;
65597;SDS011;52267;51.984;20.956;2022-11-06T02:46:35;20.10;;;11.80;;
65597;SDS011;52267;51.984;20.956;2022-11-06T02:49:12;26.00;;;12.40;;
65597;SDS011;52267;51.984;20.956;2022-11-06T02:51:52;22.70;;;12.20;;
65597;SDS011;52267;51.984;20.956;2022-11-06T02:54:27;22.40;;;11.80;;
65597;SDS011;52267;51.984;20.956;2022-11-06T02:56:56;24.40;;;13.00;;
65597;SDS011;52267;51.984;20.956;2022-11-06T03:02:30;25.60;;;12.10;;
65597;SDS011;52267;51.984;20.956;2022-11-06T03:05:13;24.10;;;11.80;;
65597;SDS011;52267;51.984;20.956;2022-11-06T03:07:51;22.70;;;12.40;;
65597;SDS011;52267;51.984;20.956;2022-11-06T03:10:24;23.10;;;11.80;;
65597;SDS011;52267;51.984;20.956;2022-11-06T03:13:02;22.10;;;13.10;;
65597;SDS011;52267;51.984;20.956;2022-11-06T03:15:41;20.80;;;12.00;;
65597;SDS011;52267;51.984;20.956;2022-11-06T03:18:42;27.00;;;13.20;;
65597;SDS011;52267;51.984;20.956;2022-11-06T03:27:18;21.70;;;11.30;;
65597;SDS011;52267;51.984;20.956;2022-11-06T03:30:09;23.90;;;12.40;;
65597;SDS011;52267;51.984;20.956;2022-11-06T03:32:55;25.60;;;12.00;;
65597;SDS011;52267;51.984;20.956;2022-11-06T03:39:01;18.90;;;10.20;;
65597;SDS011;52267;51.984;20.956;2022-11-06T03:41:37;24.00;;;12.00;;
65597;SDS011;52267;51.984;20.956;2022-11-06T03:44:12;19.70;;;10.40;;
65597;SDS011;52267;51.984;20.956;2022-11-06T03:46:44;20.60;;;11.30;;
65597;SDS011;52267;51.984;20.956;2022-11-06T03:49:21;21.00;;;11.00;;
65597;SDS011;52267;51.984;20.956;2022-11-06T03:52:15;23.40;;;10.80;;
65597;SDS011;52267;51.984;20.956;2022-11-06T03:55:13;21.80;;;11.60;;
65597;SDS011;52267;51.984;20.956;2022-11-06T04:00:40;29.60;;;13.20;;
65597;SDS011;52267;51.984;20.956;2022-11-06T04:03:26;20.30;;;10.50;;
65597;SDS011;52267;51.984;20.956;2022-11-06T04:08:34;24.30;;;11.20;;
65597;SDS011;52267;51.984;20.956;2022-11-06T04:11:23;21.20;;;10.70;;
65597;SDS011;52267;51.984;20.956;2022-11-06T04:14:10;19.60;;;9.60;;
65597;SDS011;52267;51.984;20.956;2022-11-06T04:16:46;23.20;;;11.40;;
65597;SDS011;52267;51.984;20.956;2022-11-06T04:19:17;21.10;;;10.20;;
65597;SDS011;52267;51.984;20.956;2022-11-06T04:22:20;23.60;;;13.00;;
65597;SDS011;52267;51.984;20.956;2022-11-06T04:28:35;22.20;;;10.60;;
65597;SDS011;52267;51.984;20.956;2022-11-06T04:31:17;18.80;;;10.20;;
65597;SDS011;52267;51.984;20.956;2022-11-06T04:37:12;21.00;;;10.10;;
65597;SDS011;52267;51.984;20.956;2022-11-06T04:40:12;22.20;;;12.20;;
65597;SDS011;52267;51.984;20.956;2022-11-06T04:43:02;20.00;;;11.80;;
65597;SDS011;52267;51.984;20.956;2022-11-06T04:45:45;20.00;;;12.00;;
65597;SDS011;52267;51.984;20.956;2022-11-06T04:48:16;20.10;;;12.40;;
65597;SDS011;52267;51.984;20.956;2022-11-06T04:50:49;21.90;;;11.30;;
65597;SDS011;52267;51.984;20.956;2022-11-06T04:53:20;17.40;;;10.50;;
65597;SDS011;52267;51.984;20.956;2022-11-06T04:55:53;19.30;;;10.60;;
65597;SDS011;52267;51.984;20.956;2022-11-06T04:58:21;14.50;;;8.60;;
65597;SDS011;52267;51.984;20.956;2022-11-06T05:00:49;16.30;;;10.00;;
65597;SDS011;52267;51.984;20.956;2022-11-06T05:03:17;22.50;;;12.00;;
65597;SDS011;52267;51.984;20.956;2022-11-06T05:05:44;27.70;;;11.30;;
65597;SDS011;52267;51.984;20.956;2022-11-06T05:08:18;26.10;;;12.80;;
65597;SDS011;52267;51.984;20.956;2022-11-06T05:10:47;21.10;;;11.10;;
65597;SDS011;52267;51.984;20.956;2022-11-06T05:13:14;22.80;;;11.00;;
65597;SDS011;52267;51.984;20.956;2022-11-06T05:15:41;15.90;;;9.00;;
65597;SDS011;52267;51.984;20.956;2022-11-06T05:18:08;17.40;;;10.20;;
65597;SDS011;52267;51.984;20.956;2022-11-06T05:20:35;18.30;;;10.10;;
65597;SDS011;52267;51.984;20.956;2022-11-06T05:23:03;15.70;;;9.10;;
65597;SDS011;52267;51.984;20.956;2022-11-06T05:25:35;18.20;;;9.50;;
65597;SDS011;52267;51.984;20.956;2022-11-06T05:28:05;14.60;;;7.90;;
65597;SDS011;52267;51.984;20.956;2022-11-06T05:30:35;17.30;;;9.30;;
65597;SDS011;52267;51.984;20.956;2022-11-06T05:33:02;18.70;;;10.80;;
65597;SDS011;52267;51.984;20.956;2022-11-06T05:35:30;16.90;;;8.80;;
65597;SDS011;52267;51.984;20.956;2022-11-06T05:37:58;18.50;;;10.00;;
65597;SDS011;52267;51.984;20.956;2022-11-06T05:40:26;18.20;;;9.60;;
65597;SDS011;52267;51.984;20.956;2022-11-06T05:42:54;18.30;;;9.20;;
65597;SDS011;52267;51.984;20.956;2022-11-06T05:45:21;17.30;;;9.00;;
65597;SDS011;52267;51.984;20.956;2022-11-06T05:47:48;21.40;;;9.90;;
65597;SDS011;52267;51.984;20.956;2022-11-06T05:50:15;18.10;;;9.50;;
65597;SDS011;52267;51.984;20.956;2022-11-06T05:52:42;18.10;;;9.70;;
65597;SDS011;52267;51.984;20.956;2022-11-06T05:55:09;17.50;;;8.50;;
65597;SDS011;52267;51.984;20.956;2022-11-06T05:57:36;19.80;;;8.70;;
65597;SDS011;52267;51.984;20.956;2022-11-06T06:00:06;16.90;;;9.10;;
65597;SDS011;52267;51.984;20.956;2022-11-06T06:02:35;20.80;;;9.20;;
65597;SDS011;52267;51.984;20.956;2022-11-06T06:05:03;16.30;;;9.30;;
65597;SDS011;52267;51.984;20.956;2022-11-06T06:07:33;18.70;;;9.20;;
65597;SDS011;52267;51.984;20.956;2022-11-06T06:10:00;16.40;;;9.70;;
65597;SDS011;52267;51.984;20.956;2022-11-06T06:12:27;19.20;;;9.80;;
65597;SDS011;52267;51.984;20.956;2022-11-06T06:14:54;21.60;;;10.30;;
65597;SDS011;52267;51.984;20.956;2022-11-06T06:17:21;21.00;;;10.80;;
65597;SDS011;52267;51.984;20.956;2022-11-06T06:19:48;21.30;;;10.80;;
65597;SDS011;52267;51.984;20.956;2022-11-06T06:22:15;21.10;;;10.70;;
65597;SDS011;52267;51.984;20.956;2022-11-06T06:24:42;25.90;;;10.40;;
65597;SDS011;52267;51.984;20.956;2022-11-06T06:27:09;23.30;;;9.80;;
65597;SDS011;52267;51.984;20.956;2022-11-06T06:29:36;22.90;;;10.10;;
65597;SDS011;52267;51.984;20.956;2022-11-06T06:32:03;27.80;;;11.50;;
65597;SDS011;52267;51.984;20.956;2022-11-06T06:34:31;26.50;;;9.90;;
65597;SDS011;52267;51.984;20.956;2022-11-06T06:36:58;36.20;;;11.10;;
65597;SDS011;52267;51.984;20.956;2022-11-06T06:39:25;26.50;;;11.00;;
65597;SDS011;52267;51.984;20.956;2022-11-06T06:41:52;32.70;;;11.10;;
65597;SDS011;52267;51.984;20.956;2022-11-06T06:44:19;24.10;;;11.10;;
65597;SDS011;52267;51.984;20.956;2022-11-06T06:46:45;32.50;;;11.30;;
65597;SDS011;52267;51.984;20.956;2022-11-06T06:49:12;30.20;;;10.80;;
65597;SDS011;52267;51.984;20.956;2022-11-06T06:51:39;23.10;;;10.60;;
65597;SDS011;52267;51.984;20.956;2022-11-06T06:54:06;27.50;;;10.40;;
65597;SDS011;52267;51.984;20.956;2022-11-06T06:56:34;29.70;;;8.70;;
65597;SDS011;52267;51.984;20.956;2022-11-06T06:59:01;31.60;;;10.40;;
65597;SDS011;52267;51.984;20.956;2022-11-06T07:01:28;24.20;;;9.50;;
65597;SDS011;52267;51.984;20.956;2022-11-06T07:03:55;22.90;;;10.10;;
65597;SDS011;52267;51.984;20.956;2022-11-06T07:06:21;34.80;;;9.60;;
65597;SDS011;52267;51.984;20.956;2022-11-06T07:08:54;31.00;;;8.60;;
65597;SDS011;52267;51.984;20.956;2022-11-06T07:11:21;38.90;;;10.10;;
65597;SDS011;52267;51.984;20.956;2022-11-06T07:13:48;34.90;;;10.30;;
65597;SDS011;52267;51.984;20.956;2022-11-06T07:16:15;26.10;;;7.90;;
65597;SDS011;52267;51.984;20.956;2022-11-06T07:18:42;24.20;;;8.10;;
65597;SDS011;52267;51.984;20.956;2022-11-06T07:21:10;26.20;;;8.00;;
65597;SDS011;52267;51.984;20.956;2022-11-06T07:23:38;21.70;;;9.00;;
65597;SDS011;52267;51.984;20.956;2022-11-06T07:26:05;22.10;;;8.90;;
65597;SDS011;52267;51.984;20.956;2022-11-06T07:28:33;25.10;;;9.30;;
65597;SDS011;52267;51.984;20.956;2022-11-06T07:31:02;22.10;;;8.70;;
65597;SDS011;52267;51.984;20.956;2022-11-06T07:33:31;22.00;;;10.40;;
65597;SDS011;52267;51.984;20.956;2022-11-06T07:36:07;24.50;;;10.50;;
65597;SDS011;52267;51.984;20.956;2022-11-06T07:38:37;23.90;;;10.60;;
65597;SDS011;52267;51.984;20.956;2022-11-06T07:41:08;22.80;;;9.80;;
65597;SDS011;52267;51.984;20.956;2022-11-06T07:43:37;26.60;;;11.30;;
65597;SDS011;52267;51.984;20.956;2022-11-06T07:46:06;35.70;;;10.00;;
65597;SDS011;52267;51.984;20.956;2022-11-06T07:48:34;29.80;;;9.70;;
65597;SDS011;52267;51.984;20.956;2022-11-06T07:51:04;24.40;;;8.90;;
65597;SDS011;52267;51.984;20.956;2022-11-06T07:53:33;26.30;;;9.30;;
65597;SDS011;52267;51.984;20.956;2022-11-06T07:56:00;24.60;;;9.30;;
65597;SDS011;52267;51.984;20.956;2022-11-06T07:58:28;57.10;;;15.00;;
65597;SDS011;52267;51.984;20.956;2022-11-06T08:00:56;47.40;;;15.60;;
65597;SDS011;52267;51.984;20.956;2022-11-06T08:03:25;31.10;;;12.20;;
65597;SDS011;52267;51.984;20.956;2022-11-06T08:05:56;27.40;;;12.20;;
65597;SDS011;52267;51.984;20.956;2022-11-06T08:08:28;18.60;;;9.80;;
65597;SDS011;52267;51.984;20.956;2022-11-06T08:10:55;34.40;;;9.00;;
65597;SDS011;52267;51.984;20.956;2022-11-06T08:13:25;26.00;;;10.00;;
65597;SDS011;52267;51.984;20.956;2022-11-06T08:15:52;19.30;;;9.90;;
65597;SDS011;52267;51.984;20.956;2022-11-06T08:18:19;17.20;;;7.50;;
65597;SDS011;52267;51.984;20.956;2022-11-06T08:20:46;25.50;;;10.90;;
65597;SDS011;52267;51.984;20.956;2022-11-06T08:23:13;18.50;;;7.20;;
65597;SDS011;52267;51.984;20.956;2022-11-06T08:25:40;17.20;;;8.40;;
65597;SDS011;52267;51.984;20.956;2022-11-06T08:28:08;22.20;;;9.30;;
65597;SDS011;52267;51.984;20.956;2022-11-06T08:30:35;16.80;;;8.60;;
65597;SDS011;52267;51.984;20.956;2022-11-06T08:33:04;30.30;;;9.10;;
65597;SDS011;52267;51.984;20.956;2022-11-06T08:35:36;16.10;;;7.60;;
65597;SDS011;52267;51.984;20.956;2022-11-06T08:38:03;17.80;;;8.10;;
65597;SDS011;52267;51.984;20.956;2022-11-06T08:40:36;20.30;;;9.60;;
65597;SDS011;52267;51.984;20.956;2022-11-06T08:43:06;23.10;;;8.90;;
65597;SDS011;52267;51.984;20.956;2022-11-06T08:45:36;17.00;;;8.90;;
65597;SDS011;52267;51.984;20.956;2022-11-06T08:48:07;17.80;;;9.90;;
65597;SDS011;52267;51.984;20.956;2022-11-06T08:50:37;19.50;;;8.80;;
65597;SDS011;52267;51.984;20.956;2022-11-06T08:53:05;21.10;;;9.40;;
65597;SDS011;52267;51.984;20.956;2022-11-06T08:55:35;21.20;;;8.50;;
65597;SDS011;52267;51.984;20.956;2022-11-06T08:58:05;15.10;;;7.80;;
65597;SDS011;52267;51.984;20.956;2022-11-06T09:00:33;25.80;;;10.80;;
65597;SDS011;52267;51.984;20.956;2022-11-06T09:03:03;17.10;;;9.90;;
65597;SDS011;52267;51.984;20.956;2022-11-06T09:05:38;15.70;;;8.70;;
65597;SDS011;52267;51.984;20.956;2022-11-06T09:08:08;22.30;;;9.90;;
65597;SDS011;52267;51.984;20.956;2022-11-06T09:10:37;19.90;;;10.50;;
65597;SDS011;52267;51.984;20.956;2022-11-06T09:13:05;21.70;;;9.20;;
65597;SDS011;52267;51.984;20.956;2022-11-06T09:15:33;14.40;;;7.70;;
65597;SDS011;52267;51.984;20.956;2022-11-06T09:18:00;14.40;;;7.60;;
65597;SDS011;52267;51.984;20.956;2022-11-06T09:20:27;13.50;;;7.90;;
65597;SDS011;52267;51.984;20.956;2022-11-06T09:22:59;17.90;;;9.20;;
65597;SDS011;52267;51.984;20.956;2022-11-06T09:25:28;22.60;;;12.20;;
65597;SDS011;52267;51.984;20.956;2022-11-06T09:27:56;19.70;;;11.00;;
65597;SDS011;52267;51.984;20.956;2022-11-06T09:30:28;74.40;;;42.40;;
65597;SDS011;52267;51.984;20.956;2022-11-06T09:32:58;32.00;;;16.50;;
65597;SDS011;52267;51.984;20.956;2022-11-06T09:35:28;20.00;;;11.90;;
65597;SDS011;52267;51.984;20.956;2022-11-06T09:38:09;20.60;;;10.60;;
65597;SDS011;52267;51.984;20.956;2022-11-06T09:40:50;20.50;;;10.30;;
65597;SDS011;52267;51.984;20.956;2022-11-06T09:46:46;14.20;;;9.10;;
65597;SDS011;52267;51.984;20.956;2022-11-06T09:52:05;15.20;;;9.60;;
65597;SDS011;52267;51.984;20.956;2022-11-06T09:54:35;10.70;;;6.40;;
65597;SDS011;52267;51.984;20.956;2022-11-06T09:57:15;18.80;;;9.70;;
65597;SDS011;52267;51.984;20.956;2022-11-06T09:59:46;17.10;;;10.30;;
65597;SDS011;52267;51.984;20.956;2022-11-06T10:02:24;21.70;;;13.20;;
65597;SDS011;52267;51.984;20.956;2022-11-06T10:05:22;15.90;;;11.80;;
65597;SDS011;52267;51.984;20.956;2022-11-06T10:07:52;18.10;;;10.20;;
65597;SDS011;52267;51.984;20.956;2022-11-06T10:10:29;18.50;;;10.20;;
65597;SDS011;52267;51.984;20.956;2022-11-06T10:13:22;23.10;;;11.50;;
65597;SDS011;52267;51.984;20.956;2022-11-06T10:24:43;15.80;;;8.90;;
65597;SDS011;52267;51.984;20.956;2022-11-06T10:27:16;16.30;;;8.10;;
65597;SDS011;52267;51.984;20.956;2022-11-06T10:30:00;16.40;;;9.30;;
65597;SDS011;52267;51.984;20.956;2022-11-06T10:35:29;24.70;;;10.80;;
65597;SDS011;52267;51.984;20.956;2022-11-06T10:38:24;22.20;;;12.10;;
65597;SDS011;52267;51.984;20.956;2022-11-06T10:40:54;21.90;;;10.80;;
65597;SDS011;52267;51.984;20.956;2022-11-06T10:43:39;20.20;;;10.90;;
65597;SDS011;52267;51.984;20.956;2022-11-06T10:46:21;19.60;;;12.20;;
65597;SDS011;52267;51.984;20.956;2022-11-06T10:48:57;22.10;;;11.80;;
65597;SDS011;52267;51.984;20.956;2022-11-06T10:54:27;14.20;;;9.00;;
65597;SDS011;52267;51.984;20.956;2022-11-06T11:00:15;14.00;;;8.30;;
65597;SDS011;52267;51.984;20.956;2022-11-06T11:02:48;14.70;;;8.10;;
65597;SDS011;52267;51.984;20.956;2022-11-06T11:05:20;17.40;;;8.30;;
65597;SDS011;52267;51.984;20.956;2022-11-06T11:07:48;11.90;;;7.00;;
65597;SDS011;52267;51.984;20.956;2022-11-06T11:12:51;13.40;;;6.30;;
65597;SDS011;52267;51.984;20.956;2022-11-06T11:15:22;12.00;;;6.90;;
65597;SDS011;52267;51.984;20.956;2022-11-06T11:18:16;13.80;;;7.80;;
65597;SDS011;52267;51.984;20.956;2022-11-06T11:21:09;12.20;;;5.80;;
65597;SDS011;52267;51.984;20.956;2022-11-06T11:23:41;13.40;;;7.40;;
65597;SDS011;52267;51.984;20.956;2022-11-06T11:26:25;11.20;;;6.10;;
65597;SDS011;52267;51.984;20.956;2022-11-06T11:28:55;13.10;;;7.00;;
65597;SDS011;52267;51.984;20.956;2022-11-06T11:31:32;12.30;;;6.30;;
65597;SDS011;52267;51.984;20.956;2022-11-06T11:34:02;10.50;;;5.40;;
65597;SDS011;52267;51.984;20.956;2022-11-06T11:36:49;9.80;;;6.20;;
65597;SDS011;52267;51.984;20.956;2022-11-06T11:39:34;7.50;;;5.50;;
65597;SDS011;52267;51.984;20.956;2022-11-06T11:42:28;11.30;;;6.60;;
65597;SDS011;52267;51.984;20.956;2022-11-06T11:47:37;10.90;;;5.00;;
65597;SDS011;52267;51.984;20.956;2022-11-06T11:50:26;9.00;;;5.40;;
65597;SDS011;52267;51.984;20.956;2022-11-06T11:52:58;13.00;;;5.60;;
65597;SDS011;52267;51.984;20.956;2022-11-06T11:55:35;11.20;;;5.80;;
65597;SDS011;52267;51.984;20.956;2022-11-06T11:58:25;11.60;;;5.10;;
65597;SDS011;52267;51.984;20.956;2022-11-06T12:00:57;10.90;;;5.90;;
65597;SDS011;52267;51.984;20.956;2022-11-06T12:03:33;11.50;;;6.30;;
65597;SDS011;52267;51.984;20.956;2022-11-06T12:06:10;8.90;;;5.50;;
65597;SDS011;52267;51.984;20.956;2022-11-06T12:08:45;12.50;;;5.60;;
65597;SDS011;52267;51.984;20.956;2022-11-06T12:11:19;10.00;;;5.80;;
65597;SDS011;52267;51.984;20.956;2022-11-06T12:14:30;9.10;;;5.60;;
65597;SDS011;52267;51.984;20.956;2022-11-06T12:17:20;9.70;;;5.10;;
65597;SDS011;52267;51.984;20.956;2022-11-06T12:19:53;9.00;;;5.00;;
65597;SDS011;52267;51.984;20.956;2022-11-06T12:22:27;9.80;;;5.10;;
65597;SDS011;52267;51.984;20.956;2022-11-06T12:25:03;11.30;;;6.50;;
65597;SDS011;52267;51.984;20.956;2022-11-06T12:27:43;7.80;;;4.80;;
65597;SDS011;52267;51.984;20.956;2022-11-06T12:30:15;12.30;;;6.30;;
65597;SDS011;52267;51.984;20.956;2022-11-06T12:33:00;11.40;;;5.90;;
65597;SDS011;52267;51.984;20.956;2022-11-06T12:41:25;10.00;;;5.40;;
65597;SDS011;52267;51.984;20.956;2022-11-06T12:43:55;10.70;;;4.90;;
65597;SDS011;52267;51.984;20.956;2022-11-06T12:46:29;9.30;;;4.70;;
65597;SDS011;52267;51.984;20.956;2022-11-06T13:00:07;8.60;;;4.40;;
65597;SDS011;52267;51.984;20.956;2022-11-06T13:06:04;8.10;;;4.60;;
65597;SDS011;52267;51.984;20.956;2022-11-06T13:11:51;7.40;;;4.40;;
65597;SDS011;52267;51.984;20.956;2022-11-06T13:17:34;9.60;;;4.50;;
65597;SDS011;52267;51.984;20.956;2022-11-06T13:20:51;6.10;;;4.20;;
65597;SDS011;52267;51.984;20.956;2022-11-06T13:23:28;7.30;;;4.10;;
65597;SDS011;52267;51.984;20.956;2022-11-06T13:26:35;7.90;;;4.30;;
65597;SDS011;52267;51.984;20.956;2022-11-06T13:29:12;10.20;;;5.10;;
65597;SDS011;52267;51.984;20.956;2022-11-06T13:31:51;9.20;;;4.50;;
65597;SDS011;52267;51.984;20.956;2022-11-06T13:34:25;10.50;;;5.00;;
65597;SDS011;52267;51.984;20.956;2022-11-06T13:36:55;11.00;;;5.40;;
65597;SDS011;52267;51.984;20.956;2022-11-06T13:39:32;7.60;;;4.00;;
65597;SDS011;52267;51.984;20.956;2022-11-06T13:42:04;7.60;;;4.30;;
65597;SDS011;52267;51.984;20.956;2022-11-06T13:44:39;11.20;;;5.10;;
65597;SDS011;52267;51.984;20.956;2022-11-06T13:47:14;11.30;;;5.50;;
65597;SDS011;52267;51.984;20.956;2022-11-06T13:50:47;11.80;;;5.50;;
65597;SDS011;52267;51.984;20.956;2022-11-06T13:53:26;12.70;;;7.10;;
65597;SDS011;52267;51.984;20.956;2022-11-06T13:56:42;9.50;;;5.40;;
65597;SDS011;52267;51.984;20.956;2022-11-06T14:00:10;10.40;;;6.10;;
65597;SDS011;52267;51.984;20.956;2022-11-06T14:08:27;8.30;;;4.80;;
65597;SDS011;52267;51.984;20.956;2022-11-06T14:11:10;11.10;;;6.30;;
65597;SDS011;52267;51.984;20.956;2022-11-06T14:13:58;11.40;;;5.10;;
65597;SDS011;52267;51.984;20.956;2022-11-06T14:16:35;14.60;;;6.80;;
65597;SDS011;52267;51.984;20.956;2022-11-06T14:21:52;12.40;;;7.50;;
65597;SDS011;52267;51.984;20.956;2022-11-06T14:24:34;12.00;;;6.80;;
65597;SDS011;52267;51.984;20.956;2022-11-06T14:27:11;10.30;;;6.90;;
65597;SDS011;52267;51.984;20.956;2022-11-06T14:32:57;12.90;;;7.20;;
65597;SDS011;52267;51.984;20.956;2022-11-06T14:38:16;14.30;;;6.80;;
65597;SDS011;52267;51.984;20.956;2022-11-06T14:44:05;11.30;;;7.00;;
65597;SDS011;52267;51.984;20.956;2022-11-06T14:46:49;15.10;;;9.00;;
65597;SDS011;52267;51.984;20.956;2022-11-06T14:49:29;18.70;;;8.80;;
65597;SDS011;52267;51.984;20.956;2022-11-06T14:52:10;12.40;;;7.70;;
65597;SDS011;52267;51.984;20.956;2022-11-06T14:54:41;15.40;;;10.40;;
65597;SDS011;52267;51.984;20.956;2022-11-06T14:57:22;15.30;;;10.30;;
65597;SDS011;52267;51.984;20.956;2022-11-06T15:00:35;13.80;;;9.80;;
65597;SDS011;52267;51.984;20.956;2022-11-06T15:03:02;11.10;;;7.40;;
65597;SDS011;52267;51.984;20.956;2022-11-06T15:05:30;13.50;;;7.90;;
65597;SDS011;52267;51.984;20.956;2022-11-06T15:08:02;14.40;;;9.60;;
65597;SDS011;52267;51.984;20.956;2022-11-06T15:15:45;11.70;;;6.70;;
65597;SDS011;52267;51.984;20.956;2022-11-06T15:18:19;10.60;;;7.20;;
65597;SDS011;52267;51.984;20.956;2022-11-06T15:20:56;15.10;;;7.10;;
65597;SDS011;52267;51.984;20.956;2022-11-06T15:24:07;16.60;;;8.20;;
65597;SDS011;52267;51.984;20.956;2022-11-06T15:26:50;12.80;;;7.90;;
65597;SDS011;52267;51.984;20.956;2022-11-06T15:29:36;14.50;;;7.60;;
65597;SDS011;52267;51.984;20.956;2022-11-06T15:32:21;13.60;;;8.30;;
65597;SDS011;52267;51.984;20.956;2022-11-06T15:37:46;13.10;;;8.50;;
65597;SDS011;52267;51.984;20.956;2022-11-06T15:40:36;13.50;;;7.60;;
65597;SDS011;52267;51.984;20.956;2022-11-06T15:43:08;13.90;;;7.80;;
65597;SDS011;52267;51.984;20.956;2022-11-06T15:45:43;13.10;;;7.60;;
65597;SDS011;52267;51.984;20.956;2022-11-06T15:48:21;13.10;;;8.60;;
65597;SDS011;52267;51.984;20.956;2022-11-06T15:50:48;12.90;;;7.50;;
65597;SDS011;52267;51.984;20.956;2022-11-06T15:53:22;16.40;;;9.60;;
65597;SDS011;52267;51.984;20.956;2022-11-06T15:56:03;14.80;;;9.10;;
65597;SDS011;52267;51.984;20.956;2022-11-06T15:58:34;17.60;;;10.90;;
65597;SDS011;52267;51.984;20.956;2022-11-06T16:01:05;20.40;;;12.20;;
65597;SDS011;52267;51.984;20.956;2022-11-06T16:03:48;44.20;;;25.20;;
65597;SDS011;52267;51.984;20.956;2022-11-06T16:06:19;87.50;;;42.30;;
65597;SDS011;52267;51.984;20.956;2022-11-06T16:08:48;149.50;;;73.90;;
65597;SDS011;52267;51.984;20.956;2022-11-06T16:11:18;63.60;;;33.50;;
65597;SDS011;52267;51.984;20.956;2022-11-06T16:13:46;34.10;;;18.10;;
65597;SDS011;52267;51.984;20.956;2022-11-06T16:16:49;68.60;;;33.40;;
65597;SDS011;52267;51.984;20.956;2022-11-06T16:22:02;21.10;;;12.60;;
65597;SDS011;52267;51.984;20.956;2022-11-06T16:24:42;21.10;;;11.30;;
65597;SDS011;52267;51.984;20.956;2022-11-06T16:27:14;18.30;;;10.80;;
65597;SDS011;52267;51.984;20.956;2022-11-06T16:29:56;19.50;;;10.60;;
65597;SDS011;52267;51.984;20.956;2022-11-06T16:32:27;18.80;;;10.40;;
65597;SDS011;52267;51.984;20.956;2022-11-06T16:34:56;15.50;;;9.10;;
65597;SDS011;52267;51.984;20.956;2022-11-06T16:39:58;16.30;;;9.60;;
65597;SDS011;52267;51.984;20.956;2022-11-06T16:42:32;14.90;;;9.40;;
65597;SDS011;52267;51.984;20.956;2022-11-06T16:45:19;20.70;;;11.30;;
65597;SDS011;52267;51.984;20.956;2022-11-06T16:48:27;21.00;;;12.10;;
65597;SDS011;52267;51.984;20.956;2022-11-06T16:51:02;22.60;;;13.20;;
65597;SDS011;52267;51.984;20.956;2022-11-06T16:53:53;22.80;;;12.60;;
65597;SDS011;52267;51.984;20.956;2022-11-06T16:56:24;19.10;;;11.20;;
65597;SDS011;52267;51.984;20.956;2022-11-06T16:59:05;17.10;;;10.80;;
65597;SDS011;52267;51.984;20.956;2022-11-06T17:01:39;20.70;;;12.00;;
65597;SDS011;52267;51.984;20.956;2022-11-06T17:04:20;20.70;;;12.10;;
65597;SDS011;52267;51.984;20.956;2022-11-06T17:06:49;18.10;;;12.30;;
65597;SDS011;52267;51.984;20.956;2022-11-06T17:09:29;20.40;;;11.00;;